Hauptseite
METAR-TAF:

METAR-TAF

Flughäfen :

Dax, Frankreich

Seyresse

Breite: 43-41N, Länge: 001-04W, Höhe: 32 m

Beobachtung

Neuester Wetterbericht von vor 19 Minuten, um 06:30 UTC
Wind 1 kt aus Ost/Südost
Temperatur 14°C
Luftfeuchtigkeit 88%
Luftdruck 1015 hPa

METAR: LFBY 220630Z AUTO 11001KT //// // ////// 14/12 Q1015

Zeit: 08:49 (06:49 UTC)


TAF: fehlend

Wetterbeobachtungen und Prognosen von mehr als 4000 Flughäfen (METAR und TAF Bericht).

Die verfügbaren Stationen werden durch gelbe und rote Markierungen auf der Karte dargestellt.

Führen Sie die Maus auf sie, um den Namen der Station zu sehen.

Darauf klicken, um die Beobachtung von Wetterbeobachtungen und Prognosen zu sehen.

Um die Karte zu ändern : klicken Sie auf den grünen Tasten mit einem schwarzen Kreuz Zum Vergrößern, auf den grünen Button mit einem Gedankenstrich zu verkleinern, oder auf die grünen Pfeile für benachbarte Karten.


METAR-TAF: